sensor_id;sensor_type;location;lat;lon;timestamp;P1;durP1;ratioP1;P2;durP2;ratioP2
21034;SDS011;10676;50.848;3.272;2023-06-14T00:01:50;10.98;;;6.43;;
21034;SDS011;10676;50.848;3.272;2023-06-14T00:04:16;9.45;;;6.78;;
21034;SDS011;10676;50.848;3.272;2023-06-14T00:06:42;8.38;;;6.32;;
21034;SDS011;10676;50.848;3.272;2023-06-14T00:09:15;15.27;;;6.60;;
21034;SDS011;10676;50.848;3.272;2023-06-14T00:11:42;12.15;;;6.70;;
21034;SDS011;10676;50.848;3.272;2023-06-14T00:14:08;11.80;;;6.63;;
21034;SDS011;10676;50.848;3.272;2023-06-14T00:16:34;9.23;;;6.30;;
21034;SDS011;10676;50.848;3.272;2023-06-14T00:19:00;9.77;;;6.43;;
21034;SDS011;10676;50.848;3.272;2023-06-14T00:21:29;10.95;;;6.63;;
21034;SDS011;10676;50.848;3.272;2023-06-14T00:23:57;14.70;;;7.05;;
21034;SDS011;10676;50.848;3.272;2023-06-14T00:26:23;14.13;;;6.20;;
21034;SDS011;10676;50.848;3.272;2023-06-14T00:28:48;10.88;;;6.38;;
21034;SDS011;10676;50.848;3.272;2023-06-14T00:31:14;10.27;;;6.45;;
21034;SDS011;10676;50.848;3.272;2023-06-14T00:33:40;9.52;;;6.47;;
21034;SDS011;10676;50.848;3.272;2023-06-14T00:36:06;10.02;;;6.53;;
21034;SDS011;10676;50.848;3.272;2023-06-14T00:38:32;10.95;;;6.63;;
21034;SDS011;10676;50.848;3.272;2023-06-14T00:40:57;8.60;;;6.45;;
21034;SDS011;10676;50.848;3.272;2023-06-14T00:43:23;11.75;;;7.22;;
21034;SDS011;10676;50.848;3.272;2023-06-14T00:45:49;11.60;;;7.30;;
21034;SDS011;10676;50.848;3.272;2023-06-14T00:48:16;11.30;;;7.75;;
21034;SDS011;10676;50.848;3.272;2023-06-14T00:50:42;12.13;;;8.23;;
21034;SDS011;10676;50.848;3.272;2023-06-14T00:53:10;9.27;;;8.10;;
21034;SDS011;10676;50.848;3.272;2023-06-14T00:55:43;11.57;;;8.27;;
21034;SDS011;10676;50.848;3.272;2023-06-14T00:58:09;11.38;;;7.97;;
21034;SDS011;10676;50.848;3.272;2023-06-14T01:00:36;10.55;;;8.07;;
21034;SDS011;10676;50.848;3.272;2023-06-14T01:03:01;10.48;;;8.52;;
21034;SDS011;10676;50.848;3.272;2023-06-14T01:05:28;11.10;;;8.45;;
21034;SDS011;10676;50.848;3.272;2023-06-14T01:13:23;15.98;;;9.23;;
21034;SDS011;10676;50.848;3.272;2023-06-14T01:15:54;14.48;;;9.20;;
21034;SDS011;10676;50.848;3.272;2023-06-14T01:18:21;14.77;;;8.95;;
21034;SDS011;10676;50.848;3.272;2023-06-14T01:20:49;14.52;;;9.57;;
21034;SDS011;10676;50.848;3.272;2023-06-14T01:23:18;13.95;;;8.98;;
21034;SDS011;10676;50.848;3.272;2023-06-14T01:25:45;12.65;;;9.25;;
21034;SDS011;10676;50.848;3.272;2023-06-14T01:28:12;13.85;;;8.65;;
21034;SDS011;10676;50.848;3.272;2023-06-14T01:30:41;13.80;;;9.60;;
21034;SDS011;10676;50.848;3.272;2023-06-14T01:33:13;17.42;;;9.20;;
21034;SDS011;10676;50.848;3.272;2023-06-14T01:35:44;14.05;;;9.25;;
21034;SDS011;10676;50.848;3.272;2023-06-14T01:38:15;13.38;;;9.65;;
21034;SDS011;10676;50.848;3.272;2023-06-14T01:40:44;15.65;;;10.15;;
21034;SDS011;10676;50.848;3.272;2023-06-14T01:43:11;18.25;;;10.50;;
21034;SDS011;10676;50.848;3.272;2023-06-14T01:45:38;17.45;;;9.85;;
21034;SDS011;10676;50.848;3.272;2023-06-14T01:48:06;14.70;;;10.55;;
21034;SDS011;10676;50.848;3.272;2023-06-14T01:50:32;14.27;;;10.18;;
21034;SDS011;10676;50.848;3.272;2023-06-14T01:52:59;17.05;;;11.80;;
21034;SDS011;10676;50.848;3.272;2023-06-14T01:55:24;16.75;;;11.23;;
21034;SDS011;10676;50.848;3.272;2023-06-14T01:57:51;14.85;;;11.48;;
21034;SDS011;10676;50.848;3.272;2023-06-14T02:00:17;14.93;;;11.25;;
21034;SDS011;10676;50.848;3.272;2023-06-14T02:02:43;18.52;;;11.55;;
21034;SDS011;10676;50.848;3.272;2023-06-14T02:05:10;18.20;;;11.98;;
21034;SDS011;10676;50.848;3.272;2023-06-14T02:07:36;16.35;;;11.98;;
21034;SDS011;10676;50.848;3.272;2023-06-14T02:10:02;16.65;;;11.93;;
21034;SDS011;10676;50.848;3.272;2023-06-14T02:12:29;15.48;;;11.80;;
21034;SDS011;10676;50.848;3.272;2023-06-14T02:14:54;17.42;;;12.48;;
21034;SDS011;10676;50.848;3.272;2023-06-14T02:17:21;19.48;;;13.25;;
21034;SDS011;10676;50.848;3.272;2023-06-14T02:19:48;17.65;;;12.77;;
21034;SDS011;10676;50.848;3.272;2023-06-14T02:22:14;23.77;;;13.70;;
21034;SDS011;10676;50.848;3.272;2023-06-14T02:24:40;18.17;;;14.00;;
21034;SDS011;10676;50.848;3.272;2023-06-14T02:27:06;19.73;;;15.25;;
21034;SDS011;10676;50.848;3.272;2023-06-14T02:29:33;22.98;;;14.65;;
21034;SDS011;10676;50.848;3.272;2023-06-14T02:31:59;23.80;;;15.35;;
21034;SDS011;10676;50.848;3.272;2023-06-14T02:34:25;24.55;;;14.95;;
21034;SDS011;10676;50.848;3.272;2023-06-14T02:36:50;18.20;;;13.25;;
21034;SDS011;10676;50.848;3.272;2023-06-14T02:39:17;21.17;;;13.75;;
21034;SDS011;10676;50.848;3.272;2023-06-14T02:41:45;21.52;;;14.15;;
21034;SDS011;10676;50.848;3.272;2023-06-14T02:44:13;23.27;;;14.65;;
21034;SDS011;10676;50.848;3.272;2023-06-14T02:46:39;19.25;;;13.48;;
21034;SDS011;10676;50.848;3.272;2023-06-14T02:49:04;21.42;;;14.02;;
21034;SDS011;10676;50.848;3.272;2023-06-14T02:51:30;24.20;;;14.80;;
21034;SDS011;10676;50.848;3.272;2023-06-14T02:53:56;24.95;;;15.73;;
21034;SDS011;10676;50.848;3.272;2023-06-14T02:56:21;22.88;;;16.20;;
21034;SDS011;10676;50.848;3.272;2023-06-14T02:58:47;23.92;;;15.50;;
21034;SDS011;10676;50.848;3.272;2023-06-14T03:01:13;25.38;;;16.88;;
21034;SDS011;10676;50.848;3.272;2023-06-14T03:03:39;24.20;;;15.75;;
21034;SDS011;10676;50.848;3.272;2023-06-14T03:06:05;25.08;;;16.42;;
21034;SDS011;10676;50.848;3.272;2023-06-14T03:08:33;21.30;;;14.57;;
21034;SDS011;10676;50.848;3.272;2023-06-14T03:11:04;21.25;;;15.05;;
21034;SDS011;10676;50.848;3.272;2023-06-14T03:13:36;29.17;;;15.32;;
21034;SDS011;10676;50.848;3.272;2023-06-14T03:16:03;21.13;;;15.27;;
21034;SDS011;10676;50.848;3.272;2023-06-14T03:18:29;21.05;;;14.23;;
21034;SDS011;10676;50.848;3.272;2023-06-14T03:20:58;24.13;;;14.13;;
21034;SDS011;10676;50.848;3.272;2023-06-14T03:23:24;18.95;;;14.07;;
21034;SDS011;10676;50.848;3.272;2023-06-14T03:25:50;22.10;;;14.45;;
21034;SDS011;10676;50.848;3.272;2023-06-14T03:28:16;23.63;;;13.35;;
21034;SDS011;10676;50.848;3.272;2023-06-14T03:30:42;20.02;;;13.05;;
21034;SDS011;10676;50.848;3.272;2023-06-14T03:33:08;21.83;;;12.80;;
21034;SDS011;10676;50.848;3.272;2023-06-14T03:35:34;18.83;;;13.15;;
21034;SDS011;10676;50.848;3.272;2023-06-14T03:38:00;17.73;;;12.20;;
21034;SDS011;10676;50.848;3.272;2023-06-14T03:40:25;18.63;;;12.73;;
21034;SDS011;10676;50.848;3.272;2023-06-14T03:42:53;16.95;;;12.02;;
21034;SDS011;10676;50.848;3.272;2023-06-14T03:45:19;21.75;;;12.85;;
21034;SDS011;10676;50.848;3.272;2023-06-14T03:47:46;17.55;;;12.30;;
21034;SDS011;10676;50.848;3.272;2023-06-14T03:50:11;20.98;;;12.43;;
21034;SDS011;10676;50.848;3.272;2023-06-14T03:52:38;18.73;;;12.93;;
21034;SDS011;10676;50.848;3.272;2023-06-14T03:55:03;19.30;;;12.98;;
21034;SDS011;10676;50.848;3.272;2023-06-14T03:57:30;18.80;;;12.40;;
21034;SDS011;10676;50.848;3.272;2023-06-14T03:59:55;19.05;;;12.30;;
21034;SDS011;10676;50.848;3.272;2023-06-14T04:02:21;17.48;;;12.40;;
21034;SDS011;10676;50.848;3.272;2023-06-14T04:04:47;17.77;;;12.00;;
21034;SDS011;10676;50.848;3.272;2023-06-14T04:07:14;21.20;;;11.70;;
21034;SDS011;10676;50.848;3.272;2023-06-14T04:09:44;16.63;;;12.07;;
21034;SDS011;10676;50.848;3.272;2023-06-14T04:12:10;17.67;;;11.75;;
21034;SDS011;10676;50.848;3.272;2023-06-14T04:14:39;19.55;;;12.00;;
21034;SDS011;10676;50.848;3.272;2023-06-14T04:17:05;17.35;;;12.15;;
21034;SDS011;10676;50.848;3.272;2023-06-14T04:19:31;19.77;;;12.02;;
21034;SDS011;10676;50.848;3.272;2023-06-14T04:21:57;17.90;;;11.20;;
21034;SDS011;10676;50.848;3.272;2023-06-14T04:24:26;19.30;;;12.15;;
21034;SDS011;10676;50.848;3.272;2023-06-14T04:26:53;17.92;;;11.50;;
21034;SDS011;10676;50.848;3.272;2023-06-14T04:29:19;13.63;;;10.80;;
21034;SDS011;10676;50.848;3.272;2023-06-14T04:31:46;15.18;;;11.40;;
21034;SDS011;10676;50.848;3.272;2023-06-14T04:34:12;17.55;;;11.40;;
21034;SDS011;10676;50.848;3.272;2023-06-14T04:36:43;16.90;;;11.20;;
21034;SDS011;10676;50.848;3.272;2023-06-14T04:39:18;17.65;;;10.82;;
21034;SDS011;10676;50.848;3.272;2023-06-14T04:41:44;19.35;;;10.30;;
21034;SDS011;10676;50.848;3.272;2023-06-14T04:44:10;18.48;;;11.20;;
21034;SDS011;10676;50.848;3.272;2023-06-14T04:46:37;13.68;;;9.57;;
21034;SDS011;10676;50.848;3.272;2023-06-14T04:49:10;15.07;;;10.57;;
21034;SDS011;10676;50.848;3.272;2023-06-14T04:51:43;15.25;;;10.75;;
21034;SDS011;10676;50.848;3.272;2023-06-14T04:54:15;15.27;;;9.95;;
21034;SDS011;10676;50.848;3.272;2023-06-14T04:56:43;17.98;;;9.95;;
21034;SDS011;10676;50.848;3.272;2023-06-14T04:59:10;12.70;;;10.05;;
21034;SDS011;10676;50.848;3.272;2023-06-14T05:01:40;13.18;;;9.65;;
21034;SDS011;10676;50.848;3.272;2023-06-14T05:04:06;14.15;;;9.63;;
21034;SDS011;10676;50.848;3.272;2023-06-14T05:06:31;14.15;;;9.73;;
21034;SDS011;10676;50.848;3.272;2023-06-14T05:08:58;14.27;;;9.27;;
21034;SDS011;10676;50.848;3.272;2023-06-14T05:11:23;16.15;;;9.18;;
21034;SDS011;10676;50.848;3.272;2023-06-14T05:13:52;17.98;;;9.57;;
21034;SDS011;10676;50.848;3.272;2023-06-14T05:16:17;13.32;;;9.15;;
21034;SDS011;10676;50.848;3.272;2023-06-14T05:18:44;14.43;;;8.98;;
21034;SDS011;10676;50.848;3.272;2023-06-14T05:21:12;15.20;;;8.80;;
21034;SDS011;10676;50.848;3.272;2023-06-14T05:23:42;14.48;;;8.35;;
21034;SDS011;10676;50.848;3.272;2023-06-14T05:26:09;11.02;;;8.68;;
21034;SDS011;10676;50.848;3.272;2023-06-14T05:28:35;12.02;;;8.27;;
21034;SDS011;10676;50.848;3.272;2023-06-14T05:31:01;12.68;;;8.70;;
21034;SDS011;10676;50.848;3.272;2023-06-14T05:33:27;14.13;;;8.15;;
21034;SDS011;10676;50.848;3.272;2023-06-14T05:35:54;13.20;;;8.82;;
21034;SDS011;10676;50.848;3.272;2023-06-14T05:38:20;11.80;;;8.52;;
21034;SDS011;10676;50.848;3.272;2023-06-14T05:40:46;12.95;;;7.63;;
21034;SDS011;10676;50.848;3.272;2023-06-14T05:43:12;12.77;;;9.18;;
21034;SDS011;10676;50.848;3.272;2023-06-14T05:45:38;14.00;;;8.43;;
21034;SDS011;10676;50.848;3.272;2023-06-14T05:48:05;13.00;;;8.27;;
21034;SDS011;10676;50.848;3.272;2023-06-14T05:50:31;15.68;;;8.45;;
21034;SDS011;10676;50.848;3.272;2023-06-14T05:52:57;10.50;;;8.43;;
21034;SDS011;10676;50.848;3.272;2023-06-14T05:55:24;11.50;;;7.95;;
21034;SDS011;10676;50.848;3.272;2023-06-14T05:57:50;15.23;;;7.72;;
21034;SDS011;10676;50.848;3.272;2023-06-14T06:00:15;11.05;;;7.35;;
21034;SDS011;10676;50.848;3.272;2023-06-14T06:02:42;11.85;;;8.10;;
21034;SDS011;10676;50.848;3.272;2023-06-14T06:05:12;15.35;;;8.10;;
21034;SDS011;10676;50.848;3.272;2023-06-14T06:07:38;11.27;;;7.43;;
21034;SDS011;10676;50.848;3.272;2023-06-14T06:10:05;13.30;;;7.57;;
21034;SDS011;10676;50.848;3.272;2023-06-14T06:15:06;10.02;;;7.28;;
21034;SDS011;10676;50.848;3.272;2023-06-14T06:17:32;11.30;;;7.20;;
21034;SDS011;10676;50.848;3.272;2023-06-14T06:19:59;11.55;;;6.93;;
21034;SDS011;10676;50.848;3.272;2023-06-14T06:22:25;10.82;;;7.45;;
21034;SDS011;10676;50.848;3.272;2023-06-14T06:24:51;12.65;;;7.50;;
21034;SDS011;10676;50.848;3.272;2023-06-14T06:27:17;12.93;;;7.32;;
21034;SDS011;10676;50.848;3.272;2023-06-14T06:29:43;15.23;;;7.32;;
21034;SDS011;10676;50.848;3.272;2023-06-14T06:32:09;9.95;;;7.10;;
21034;SDS011;10676;50.848;3.272;2023-06-14T06:34:35;9.25;;;6.63;;
21034;SDS011;10676;50.848;3.272;2023-06-14T06:37:01;10.70;;;7.00;;
21034;SDS011;10676;50.848;3.272;2023-06-14T06:39:26;9.98;;;6.90;;
21034;SDS011;10676;50.848;3.272;2023-06-14T06:41:52;8.32;;;7.40;;
21034;SDS011;10676;50.848;3.272;2023-06-14T06:44:17;9.45;;;6.85;;
21034;SDS011;10676;50.848;3.272;2023-06-14T06:46:43;10.48;;;7.05;;
21034;SDS011;10676;50.848;3.272;2023-06-14T06:49:09;11.07;;;7.38;;
21034;SDS011;10676;50.848;3.272;2023-06-14T06:51:37;9.77;;;6.85;;
21034;SDS011;10676;50.848;3.272;2023-06-14T06:54:02;9.65;;;7.28;;
21034;SDS011;10676;50.848;3.272;2023-06-14T06:56:28;14.88;;;6.82;;
21034;SDS011;10676;50.848;3.272;2023-06-14T06:58:54;7.72;;;6.32;;
21034;SDS011;10676;50.848;3.272;2023-06-14T07:01:20;12.07;;;6.30;;
21034;SDS011;10676;50.848;3.272;2023-06-14T07:03:45;9.57;;;6.55;;
21034;SDS011;10676;50.848;3.272;2023-06-14T07:06:11;6.53;;;5.93;;
21034;SDS011;10676;50.848;3.272;2023-06-14T07:08:37;6.60;;;5.65;;
21034;SDS011;10676;50.848;3.272;2023-06-14T07:11:06;9.35;;;6.22;;
21034;SDS011;10676;50.848;3.272;2023-06-14T07:13:32;10.63;;;6.15;;
21034;SDS011;10676;50.848;3.272;2023-06-14T07:15:58;10.27;;;6.00;;
21034;SDS011;10676;50.848;3.272;2023-06-14T07:18:25;7.70;;;5.72;;
21034;SDS011;10676;50.848;3.272;2023-06-14T07:20:53;7.35;;;5.45;;
21034;SDS011;10676;50.848;3.272;2023-06-14T07:23:19;9.68;;;6.07;;
21034;SDS011;10676;50.848;3.272;2023-06-14T07:25:45;11.25;;;6.00;;
21034;SDS011;10676;50.848;3.272;2023-06-14T07:28:11;9.18;;;6.20;;
21034;SDS011;10676;50.848;3.272;2023-06-14T07:30:37;12.82;;;5.65;;
21034;SDS011;10676;50.848;3.272;2023-06-14T07:33:03;7.78;;;6.05;;
21034;SDS011;10676;50.848;3.272;2023-06-14T07:35:28;11.35;;;5.95;;
21034;SDS011;10676;50.848;3.272;2023-06-14T07:37:54;8.43;;;5.90;;
21034;SDS011;10676;50.848;3.272;2023-06-14T07:40:20;9.52;;;5.90;;
21034;SDS011;10676;50.848;3.272;2023-06-14T07:42:46;16.20;;;6.05;;
21034;SDS011;10676;50.848;3.272;2023-06-14T07:45:14;10.85;;;5.85;;
21034;SDS011;10676;50.848;3.272;2023-06-14T07:47:40;8.07;;;5.80;;
21034;SDS011;10676;50.848;3.272;2023-06-14T07:50:06;6.90;;;5.82;;
21034;SDS011;10676;50.848;3.272;2023-06-14T07:52:32;8.30;;;5.70;;
21034;SDS011;10676;50.848;3.272;2023-06-14T07:54:57;7.22;;;5.57;;
21034;SDS011;10676;50.848;3.272;2023-06-14T07:57:23;10.73;;;5.70;;
21034;SDS011;10676;50.848;3.272;2023-06-14T07:59:49;6.63;;;5.80;;
21034;SDS011;10676;50.848;3.272;2023-06-14T08:02:15;13.95;;;5.95;;
21034;SDS011;10676;50.848;3.272;2023-06-14T08:04:40;5.88;;;5.35;;
21034;SDS011;10676;50.848;3.272;2023-06-14T08:07:07;10.25;;;5.60;;
21034;SDS011;10676;50.848;3.272;2023-06-14T08:09:33;10.75;;;5.50;;
21034;SDS011;10676;50.848;3.272;2023-06-14T08:11:59;7.57;;;5.57;;
21034;SDS011;10676;50.848;3.272;2023-06-14T08:14:25;13.13;;;6.18;;
21034;SDS011;10676;50.848;3.272;2023-06-14T08:16:51;6.50;;;5.53;;
21034;SDS011;10676;50.848;3.272;2023-06-14T08:19:16;13.07;;;5.30;;
21034;SDS011;10676;50.848;3.272;2023-06-14T08:21:43;11.63;;;4.60;;
21034;SDS011;10676;50.848;3.272;2023-06-14T08:24:10;5.68;;;5.07;;
21034;SDS011;10676;50.848;3.272;2023-06-14T08:26:37;9.32;;;4.85;;
21034;SDS011;10676;50.848;3.272;2023-06-14T08:29:04;7.85;;;5.30;;
21034;SDS011;10676;50.848;3.272;2023-06-14T08:31:32;6.70;;;4.70;;
21034;SDS011;10676;50.848;3.272;2023-06-14T08:33:58;7.80;;;4.95;;
21034;SDS011;10676;50.848;3.272;2023-06-14T08:36:23;9.38;;;5.07;;
21034;SDS011;10676;50.848;3.272;2023-06-14T08:38:49;8.32;;;4.78;;
21034;SDS011;10676;50.848;3.272;2023-06-14T08:41:19;8.50;;;4.43;;
21034;SDS011;10676;50.848;3.272;2023-06-14T08:43:47;6.03;;;5.43;;
21034;SDS011;10676;50.848;3.272;2023-06-14T08:46:13;6.75;;;5.22;;
21034;SDS011;10676;50.848;3.272;2023-06-14T08:48:44;8.27;;;4.95;;
21034;SDS011;10676;50.848;3.272;2023-06-14T08:51:15;5.18;;;4.68;;
21034;SDS011;10676;50.848;3.272;2023-06-14T08:53:44;9.07;;;4.60;;
21034;SDS011;10676;50.848;3.272;2023-06-14T08:56:10;7.57;;;5.05;;
21034;SDS011;10676;50.848;3.272;2023-06-14T08:58:40;7.90;;;5.10;;
21034;SDS011;10676;50.848;3.272;2023-06-14T09:01:10;5.15;;;4.65;;
21034;SDS011;10676;50.848;3.272;2023-06-14T09:03:41;9.70;;;4.68;;
21034;SDS011;10676;50.848;3.272;2023-06-14T09:06:08;5.95;;;4.50;;
21034;SDS011;10676;50.848;3.272;2023-06-14T09:08:39;5.20;;;4.60;;
21034;SDS011;10676;50.848;3.272;2023-06-14T09:11:13;5.18;;;4.10;;
21034;SDS011;10676;50.848;3.272;2023-06-14T09:13:40;6.28;;;4.60;;
21034;SDS011;10676;50.848;3.272;2023-06-14T09:16:06;7.43;;;4.20;;
21034;SDS011;10676;50.848;3.272;2023-06-14T09:18:36;7.88;;;4.65;;
21034;SDS011;10676;50.848;3.272;2023-06-14T09:21:03;7.25;;;4.78;;
21034;SDS011;10676;50.848;3.272;2023-06-14T09:23:33;6.30;;;4.68;;
21034;SDS011;10676;50.848;3.272;2023-06-14T09:26:18;5.60;;;4.60;;
21034;SDS011;10676;50.848;3.272;2023-06-14T09:28:49;5.50;;;4.57;;
21034;SDS011;10676;50.848;3.272;2023-06-14T09:31:19;5.43;;;4.82;;
21034;SDS011;10676;50.848;3.272;2023-06-14T09:33:46;5.60;;;4.80;;
21034;SDS011;10676;50.848;3.272;2023-06-14T09:36:16;7.72;;;4.68;;
21034;SDS011;10676;50.848;3.272;2023-06-14T09:39:06;5.57;;;4.35;;
21034;SDS011;10676;50.848;3.272;2023-06-14T09:41:33;6.85;;;4.88;;
21034;SDS011;10676;50.848;3.272;2023-06-14T09:44:00;7.57;;;4.88;;
21034;SDS011;10676;50.848;3.272;2023-06-14T09:46:28;8.50;;;5.03;;
21034;SDS011;10676;50.848;3.272;2023-06-14T09:48:54;8.65;;;4.80;;
21034;SDS011;10676;50.848;3.272;2023-06-14T09:51:22;5.25;;;4.75;;
21034;SDS011;10676;50.848;3.272;2023-06-14T09:53:48;4.55;;;4.15;;
21034;SDS011;10676;50.848;3.272;2023-06-14T09:56:22;6.93;;;4.55;;
21034;SDS011;10676;50.848;3.272;2023-06-14T09:58:55;6.18;;;4.82;;
21034;SDS011;10676;50.848;3.272;2023-06-14T10:01:22;6.85;;;4.68;;
21034;SDS011;10676;50.848;3.272;2023-06-14T10:04:04;8.55;;;4.85;;
21034;SDS011;10676;50.848;3.272;2023-06-14T10:06:31;5.45;;;4.53;;
21034;SDS011;10676;50.848;3.272;2023-06-14T10:09:02;5.35;;;4.05;;
21034;SDS011;10676;50.848;3.272;2023-06-14T10:11:32;5.63;;;4.50;;
21034;SDS011;10676;50.848;3.272;2023-06-14T10:14:01;6.20;;;4.95;;
21034;SDS011;10676;50.848;3.272;2023-06-14T10:16:31;9.25;;;5.07;;
21034;SDS011;10676;50.848;3.272;2023-06-14T10:21:51;6.65;;;4.82;;
21034;SDS011;10676;50.848;3.272;2023-06-14T10:24:33;6.03;;;4.63;;
21034;SDS011;10676;50.848;3.272;2023-06-14T10:27:06;5.53;;;4.88;;
21034;SDS011;10676;50.848;3.272;2023-06-14T10:32:24;6.47;;;4.85;;
21034;SDS011;10676;50.848;3.272;2023-06-14T10:34:56;6.03;;;4.68;;
21034;SDS011;10676;50.848;3.272;2023-06-14T10:37:26;6.85;;;4.50;;
21034;SDS011;10676;50.848;3.272;2023-06-14T10:39:52;10.18;;;4.75;;
21034;SDS011;10676;50.848;3.272;2023-06-14T10:42:19;5.93;;;4.53;;
21034;SDS011;10676;50.848;3.272;2023-06-14T10:44:45;5.72;;;4.90;;
21034;SDS011;10676;50.848;3.272;2023-06-14T10:47:23;7.22;;;4.88;;
21034;SDS011;10676;50.848;3.272;2023-06-14T10:49:50;10.30;;;4.50;;
21034;SDS011;10676;50.848;3.272;2023-06-14T10:52:20;5.30;;;4.80;;
21034;SDS011;10676;50.848;3.272;2023-06-14T10:57:36;6.95;;;4.38;;
21034;SDS011;10676;50.848;3.272;2023-06-14T11:00:04;6.13;;;4.50;;
21034;SDS011;10676;50.848;3.272;2023-06-14T11:02:46;6.82;;;4.63;;
21034;SDS011;10676;50.848;3.272;2023-06-14T11:05:16;5.75;;;4.35;;
21034;SDS011;10676;50.848;3.272;2023-06-14T11:10:45;6.82;;;4.68;;
21034;SDS011;10676;50.848;3.272;2023-06-14T11:13:12;7.57;;;4.78;;
21034;SDS011;10676;50.848;3.272;2023-06-14T11:15:38;8.18;;;5.15;;
21034;SDS011;10676;50.848;3.272;2023-06-14T11:18:08;6.90;;;4.55;;
21034;SDS011;10676;50.848;3.272;2023-06-14T11:20:36;10.25;;;4.85;;
21034;SDS011;10676;50.848;3.272;2023-06-14T11:23:03;6.50;;;4.40;;
21034;SDS011;10676;50.848;3.272;2023-06-14T11:25:29;5.93;;;4.90;;
21034;SDS011;10676;50.848;3.272;2023-06-14T11:27:55;4.85;;;4.43;;
21034;SDS011;10676;50.848;3.272;2023-06-14T11:30:22;6.35;;;4.80;;
21034;SDS011;10676;50.848;3.272;2023-06-14T11:32:48;6.10;;;5.32;;
21034;SDS011;10676;50.848;3.272;2023-06-14T11:35:15;6.72;;;5.75;;
21034;SDS011;10676;50.848;3.272;2023-06-14T11:37:42;6.63;;;4.80;;
21034;SDS011;10676;50.848;3.272;2023-06-14T11:40:09;5.32;;;4.82;;
21034;SDS011;10676;50.848;3.272;2023-06-14T11:42:36;6.55;;;5.60;;
21034;SDS011;10676;50.848;3.272;2023-06-14T11:45:03;6.43;;;4.95;;
21034;SDS011;10676;50.848;3.272;2023-06-14T11:47:32;5.68;;;4.70;;
21034;SDS011;10676;50.848;3.272;2023-06-14T11:49:59;5.43;;;4.80;;
21034;SDS011;10676;50.848;3.272;2023-06-14T11:52:25;5.50;;;4.93;;
21034;SDS011;10676;50.848;3.272;2023-06-14T11:54:51;6.18;;;5.60;;
21034;SDS011;10676;50.848;3.272;2023-06-14T11:57:18;8.98;;;5.28;;
21034;SDS011;10676;50.848;3.272;2023-06-14T11:59:44;6.47;;;4.60;;
21034;SDS011;10676;50.848;3.272;2023-06-14T12:02:14;6.15;;;5.28;;
21034;SDS011;10676;50.848;3.272;2023-06-14T12:04:40;5.30;;;4.80;;
21034;SDS011;10676;50.848;3.272;2023-06-14T12:07:13;7.05;;;5.13;;
21034;SDS011;10676;50.848;3.272;2023-06-14T12:09:42;5.75;;;4.88;;
21034;SDS011;10676;50.848;3.272;2023-06-14T12:12:34;8.50;;;5.43;;
21034;SDS011;10676;50.848;3.272;2023-06-14T12:15:02;12.80;;;5.53;;
21034;SDS011;10676;50.848;3.272;2023-06-14T12:17:31;7.63;;;4.80;;
21034;SDS011;10676;50.848;3.272;2023-06-14T12:19:57;5.80;;;4.60;;
21034;SDS011;10676;50.848;3.272;2023-06-14T12:22:23;9.02;;;4.90;;
21034;SDS011;10676;50.848;3.272;2023-06-14T12:24:49;7.95;;;4.97;;
21034;SDS011;10676;50.848;3.272;2023-06-14T12:27:15;9.45;;;5.00;;
21034;SDS011;10676;50.848;3.272;2023-06-14T12:29:43;12.98;;;6.32;;
21034;SDS011;10676;50.848;3.272;2023-06-14T12:32:10;7.60;;;4.80;;
21034;SDS011;10676;50.848;3.272;2023-06-14T12:34:36;5.93;;;5.18;;
21034;SDS011;10676;50.848;3.272;2023-06-14T12:37:02;8.07;;;5.10;;
21034;SDS011;10676;50.848;3.272;2023-06-14T12:39:31;10.75;;;5.72;;
21034;SDS011;10676;50.848;3.272;2023-06-14T12:41:57;5.53;;;4.97;;
21034;SDS011;10676;50.848;3.272;2023-06-14T12:44:23;5.97;;;4.82;;
21034;SDS011;10676;50.848;3.272;2023-06-14T12:46:49;8.40;;;5.10;;
21034;SDS011;10676;50.848;3.272;2023-06-14T12:49:16;9.38;;;5.63;;
21034;SDS011;10676;50.848;3.272;2023-06-14T12:51:42;8.90;;;5.18;;
21034;SDS011;10676;50.848;3.272;2023-06-14T12:54:08;10.30;;;4.88;;
21034;SDS011;10676;50.848;3.272;2023-06-14T12:56:34;7.32;;;4.75;;
21034;SDS011;10676;50.848;3.272;2023-06-14T12:58:59;9.93;;;5.55;;
21034;SDS011;10676;50.848;3.272;2023-06-14T13:01:25;8.10;;;4.75;;
21034;SDS011;10676;50.848;3.272;2023-06-14T13:03:51;8.80;;;5.20;;
21034;SDS011;10676;50.848;3.272;2023-06-14T13:06:20;5.85;;;4.60;;
21034;SDS011;10676;50.848;3.272;2023-06-14T13:08:50;8.70;;;5.10;;
21034;SDS011;10676;50.848;3.272;2023-06-14T13:11:15;6.97;;;4.75;;
21034;SDS011;10676;50.848;3.272;2023-06-14T13:13:41;13.27;;;5.85;;
21034;SDS011;10676;50.848;3.272;2023-06-14T13:16:07;7.15;;;4.80;;
21034;SDS011;10676;50.848;3.272;2023-06-14T13:18:33;8.77;;;5.30;;
21034;SDS011;10676;50.848;3.272;2023-06-14T13:20:59;9.70;;;5.13;;
21034;SDS011;10676;50.848;3.272;2023-06-14T13:23:26;5.22;;;4.68;;
21034;SDS011;10676;50.848;3.272;2023-06-14T13:25:51;9.50;;;4.78;;
21034;SDS011;10676;50.848;3.272;2023-06-14T13:28:17;6.15;;;4.63;;
21034;SDS011;10676;50.848;3.272;2023-06-14T13:30:43;7.60;;;5.03;;
21034;SDS011;10676;50.848;3.272;2023-06-14T13:33:08;14.05;;;5.18;;
21034;SDS011;10676;50.848;3.272;2023-06-14T13:35:35;10.32;;;5.28;;
21034;SDS011;10676;50.848;3.272;2023-06-14T13:38:00;8.07;;;5.13;;
21034;SDS011;10676;50.848;3.272;2023-06-14T13:40:26;6.75;;;5.15;;
21034;SDS011;10676;50.848;3.272;2023-06-14T13:42:52;6.43;;;5.25;;
21034;SDS011;10676;50.848;3.272;2023-06-14T13:45:18;6.63;;;4.80;;
21034;SDS011;10676;50.848;3.272;2023-06-14T13:47:43;7.65;;;5.15;;
21034;SDS011;10676;50.848;3.272;2023-06-14T13:50:10;5.65;;;4.57;;
21034;SDS011;10676;50.848;3.272;2023-06-14T13:52:35;7.07;;;4.75;;
21034;SDS011;10676;50.848;3.272;2023-06-14T13:55:01;7.10;;;4.90;;
21034;SDS011;10676;50.848;3.272;2023-06-14T13:57:27;10.57;;;4.80;;
21034;SDS011;10676;50.848;3.272;2023-06-14T13:59:53;10.48;;;5.03;;
21034;SDS011;10676;50.848;3.272;2023-06-14T14:02:20;5.63;;;4.75;;
21034;SDS011;10676;50.848;3.272;2023-06-14T14:04:46;5.85;;;4.82;;
21034;SDS011;10676;50.848;3.272;2023-06-14T14:07:18;8.20;;;5.20;;
21034;SDS011;10676;50.848;3.272;2023-06-14T14:09:45;7.07;;;5.15;;
21034;SDS011;10676;50.848;3.272;2023-06-14T14:12:11;6.90;;;5.20;;
21034;SDS011;10676;50.848;3.272;2023-06-14T14:14:37;7.57;;;4.95;;
21034;SDS011;10676;50.848;3.272;2023-06-14T14:17:02;5.90;;;5.15;;
21034;SDS011;10676;50.848;3.272;2023-06-14T14:19:29;5.68;;;5.10;;
21034;SDS011;10676;50.848;3.272;2023-06-14T14:21:54;6.10;;;5.30;;
21034;SDS011;10676;50.848;3.272;2023-06-14T14:24:20;6.60;;;4.72;;
21034;SDS011;10676;50.848;3.272;2023-06-14T14:26:46;5.85;;;5.00;;
21034;SDS011;10676;50.848;3.272;2023-06-14T14:29:15;5.22;;;4.72;;
21034;SDS011;10676;50.848;3.272;2023-06-14T14:31:41;5.95;;;4.82;;
21034;SDS011;10676;50.848;3.272;2023-06-14T14:34:07;7.35;;;4.85;;
21034;SDS011;10676;50.848;3.272;2023-06-14T14:36:33;7.78;;;4.95;;
21034;SDS011;10676;50.848;3.272;2023-06-14T14:39:02;6.22;;;5.57;;
21034;SDS011;10676;50.848;3.272;2023-06-14T14:41:32;8.88;;;5.78;;
21034;SDS011;10676;50.848;3.272;2023-06-14T14:43:57;7.93;;;5.22;;
21034;SDS011;10676;50.848;3.272;2023-06-14T14:46:25;9.25;;;5.20;;
21034;SDS011;10676;50.848;3.272;2023-06-14T14:48:52;9.00;;;5.72;;
21034;SDS011;10676;50.848;3.272;2023-06-14T14:51:17;8.85;;;5.55;;
21034;SDS011;10676;50.848;3.272;2023-06-14T14:53:43;9.05;;;5.20;;
21034;SDS011;10676;50.848;3.272;2023-06-14T14:56:08;5.88;;;4.80;;
21034;SDS011;10676;50.848;3.272;2023-06-14T14:58:34;6.22;;;5.30;;